Time;durP1;ratioP1;P1;durP2;ratioP2;P2;SDS_P1;SDS_P2;PMS_P1;PMS_P2;Temp;Humidity;BMP_temperature;BMP_pressure;BME280_temperature;BME280_humidity;BME280_pressure;Samples;Min_cycle;Max_cycle;Signal;HPM_P1;HPM_P2
2022/09/23 00:01:37;;;;;;;;;;;10.70;56.80;;;6.12;98.02;95750.00;4970795;28;19910;-44
2022/09/23 00:04:05;;;;;;;;;;;10.70;56.80;;;6.08;98.38;95754.16;4971992;28;20020;-46
2022/09/23 00:06:31;;;;;;;;;;;10.70;56.80;;;6.08;98.76;95748.03;4970347;28;20311;-49
2022/09/23 00:09:03;;;;;;;;;;;10.70;56.90;;;6.07;98.93;95747.25;4970996;28;19963;-45
2022/09/23 00:11:35;;;;;;;;;;;10.60;57.00;;;6.06;99.22;95750.94;4954527;28;20008;-44
2022/09/23 00:14:01;;;;;;;;;;;10.60;57.00;;;6.03;98.87;95749.56;4953808;28;19918;-44
2022/09/23 00:16:34;;;;;;;;;;;10.60;57.00;;;6.00;98.59;95747.38;4970979;28;26726;-47
2022/09/23 00:19:04;;;;;;;;;;;10.60;57.10;;;5.97;98.67;95750.47;4953319;28;19918;-44
2022/09/23 00:21:30;;;;;;;;;;;10.60;57.10;;;5.93;98.73;95753.81;4952361;28;20021;-44
2022/09/23 00:23:56;;;;;;;;;;;10.50;57.10;;;5.88;98.37;95748.38;4953014;28;20009;-44
2022/09/23 00:26:23;;;;;;;;;;;10.50;57.10;;;5.81;98.63;95745.84;4958030;28;19917;-44
2022/09/23 00:28:50;;;;;;;;;;;10.50;57.20;;;5.80;99.19;95753.00;4952637;28;20013;-50
2022/09/23 00:31:23;;;;;;;;;;;10.40;57.20;;;5.79;98.93;95756.66;4961459;28;20364;-46
2022/09/23 00:33:59;;;;;;;;;;;10.40;57.30;;;5.77;98.95;95761.38;4954685;28;19913;-49
2022/09/23 00:36:29;;;;;;;;;;;10.40;57.30;;;5.73;99.29;95757.56;4970969;28;19909;-47
2022/09/23 00:38:55;;;;;;;;;;;10.40;57.40;;;5.70;99.32;95755.41;4970528;28;19910;-49
2022/09/23 00:41:22;;;;;;;;;;;10.30;57.40;;;5.70;99.75;95757.22;4970015;28;20292;-46
2022/09/23 00:44:00;;;;;;;;;;;10.30;57.40;;;5.69;99.98;95748.50;4970195;28;20033;-47
2022/09/23 00:46:47;;;;;;;;;;;10.30;57.50;;;5.66;99.91;95751.59;4970603;28;19917;-46
2022/09/23 00:49:28;;;;;;;;;;;10.20;57.50;;;5.65;100.00;95747.34;4968180;28;19914;-45
2022/09/23 00:52:11;;;;;;;;;;;10.30;57.60;;;5.67;99.98;95742.66;4950502;28;19910;-44
2022/09/23 00:54:55;;;;;;;;;;;10.20;57.60;;;5.64;99.71;95744.91;4953441;28;19933;-44
2022/09/23 00:57:24;;;;;;;;;;;10.20;57.60;;;5.59;98.89;95742.97;4967677;28;19909;-47
2022/09/23 00:59:50;;;;;;;;;;;10.20;57.60;;;5.50;98.88;95745.16;4970267;28;19917;-46
2022/09/23 01:02:20;;;;;;;;;;;10.10;57.70;;;5.47;99.18;95736.88;4952518;28;19910;-47
2022/09/23 01:04:52;;;;;;;;;;;10.10;57.70;;;5.42;98.85;95732.28;4952483;29;19960;-45
2022/09/23 01:07:18;;;;;;;;;;;10.00;57.60;;;5.37;98.65;95734.00;4956771;28;19949;-45
2022/09/23 01:09:50;;;;;;;;;;;10.00;57.70;;;5.31;99.19;95730.44;4935027;29;20371;-50
2022/09/23 01:12:50;;;;;;;;;;;10.00;57.70;;;5.30;100.00;95734.09;4954231;28;19914;-46
2022/09/23 01:15:48;;;;;;;;;;;9.90;57.80;;;5.28;99.27;95726.41;4971178;28;20389;-50
2022/09/23 01:18:26;;;;;;;;;;;9.90;57.90;;;5.23;99.22;95718.38;4959196;28;19914;-45
2022/09/23 01:21:17;;;;;;;;;;;9.90;58.00;;;5.17;99.37;95726.38;4951506;29;19921;-45
2022/09/23 01:24:14;;;;;;;;;;;9.80;58.00;;;5.13;99.49;95725.22;4951135;28;19979;-44
2022/09/23 01:27:19;;;;;;;;;;;9.80;58.10;;;5.09;99.54;95725.69;4961015;28;19921;-46
2022/09/23 01:30:09;;;;;;;;;;;9.80;58.20;;;5.06;100.00;95720.03;4973825;28;20161;-46
2022/09/23 01:33:44;;;;;;;;;;;9.70;58.20;;;5.05;100.00;95723.72;4944867;28;19913;-47
2022/09/23 01:36:26;;;;;;;;;;;9.70;58.30;;;4.98;99.85;95721.19;4897371;29;19918;-45
2022/09/23 01:39:42;;;;;;;;;;;9.70;58.30;;;4.94;99.59;95730.56;4950024;28;19968;-45
2022/09/23 01:42:21;;;;;;;;;;;9.60;58.30;;;4.88;99.66;95724.34;4973519;28;19957;-47
2022/09/23 01:45:13;;;;;;;;;;;9.60;58.40;;;4.86;100.00;95721.16;4975191;28;19910;-44
2022/09/23 01:48:00;;;;;;;;;;;9.50;58.40;;;4.86;100.00;95718.50;4973866;28;19945;-45
2022/09/23 01:54:05;;;;;;;;;;;9.50;58.60;;;4.85;100.00;95713.44;4955681;28;19921;-48
2022/09/23 01:57:21;;;;;;;;;;;9.50;58.60;;;4.81;100.00;95718.34;4950327;28;19909;-45
2022/09/23 02:00:18;;;;;;;;;;;9.50;58.60;;;4.79;100.00;95712.50;4964234;28;20276;-45
2022/09/23 02:03:26;;;;;;;;;;;9.50;58.70;;;4.77;100.00;95713.78;4962815;28;19917;-49
2022/09/23 02:06:28;;;;;;;;;;;9.50;58.70;;;4.76;99.91;95709.50;4952353;28;20446;-48
2022/09/23 02:09:16;;;;;;;;;;;9.40;58.70;;;4.71;100.00;95712.81;4973269;28;19910;-44
2022/09/23 02:11:51;;;;;;;;;;;9.40;58.70;;;4.70;100.00;95718.31;4972695;28;19953;-44
2022/09/23 02:14:33;;;;;;;;;;;9.40;58.80;;;4.69;100.00;95714.06;4998399;23;20414;-45
2022/09/23 02:17:12;;;;;;;;;;;9.30;58.80;;;4.68;100.00;95715.91;4977273;28;20438;-49
2022/09/23 02:19:53;;;;;;;;;;;9.30;58.90;;;4.69;100.00;95714.88;4991314;28;19913;-47
2022/09/23 02:22:51;;;;;;;;;;;9.40;59.00;;;4.73;100.00;95723.16;4992543;28;19913;-47
2022/09/23 02:25:32;;;;;;;;;;;9.30;59.00;;;4.72;100.00;95713.63;4939287;28;20283;-45
2022/09/23 02:28:18;;;;;;;;;;;9.30;59.10;;;4.69;100.00;95719.34;4973282;28;19909;-45
2022/09/23 02:31:20;;;;;;;;;;;9.40;59.10;;;4.66;100.00;95712.69;4952491;28;19918;-45
2022/09/23 02:34:39;;;;;;;;;;;9.30;59.10;;;4.67;100.00;95705.56;4962977;28;19909;-46
2022/09/23 02:37:23;;;;;;;;;;;9.30;59.20;;;4.65;100.00;95713.72;4968627;28;20288;-45
2022/09/23 02:40:25;;;;;;;;;;;9.30;59.30;;;4.59;100.00;95720.69;4973212;28;19913;-46
2022/09/23 02:43:18;;;;;;;;;;;9.30;59.30;;;4.55;100.00;95718.72;4972469;28;19984;-46
2022/09/23 02:45:46;;;;;;;;;;;9.30;59.30;;;4.54;100.00;95717.91;4973155;28;19914;-48
2022/09/23 02:48:25;;;;;;;;;;;9.30;59.30;;;4.51;100.00;95707.81;4955876;28;19976;-45
2022/09/23 02:50:52;;;;;;;;;;;9.20;59.20;;;4.51;100.00;95713.09;4956703;28;20009;-45
2022/09/23 02:53:18;;;;;;;;;;;9.20;59.20;;;4.49;100.00;95709.06;4957000;28;19910;-45
2022/09/23 02:55:44;;;;;;;;;;;9.20;59.30;;;4.49;100.00;95711.72;4958860;28;20373;-48
2022/09/23 02:58:12;;;;;;;;;;;9.20;59.30;;;4.45;100.00;95708.72;4972862;28;19924;-46
2022/09/23 03:01:32;;;;;;;;;;;9.20;59.30;;;4.39;100.00;95705.13;4974951;28;19917;-47
2022/09/23 03:04:51;;;;;;;;;;;9.20;59.30;;;4.44;100.00;95706.28;4992934;28;19916;-45
2022/09/23 03:07:44;;;;;;;;;;;9.10;59.40;;;4.47;100.00;95708.47;4980405;28;19910;-46
2022/09/23 03:11:10;;;;;;;;;;;9.10;59.50;;;4.43;100.00;95708.13;4972437;28;19925;-46
2022/09/23 03:14:25;;;;;;;;;;;9.00;59.50;;;4.44;100.00;95715.00;4958972;28;20351;-44
2022/09/23 03:17:24;;;;;;;;;;;9.10;59.60;;;4.39;100.00;95710.41;4969068;28;19933;-41
2022/09/23 03:20:24;;;;;;;;;;;9.00;59.50;;;4.31;99.96;95713.34;4970998;28;19913;-44
2022/09/23 03:22:59;;;;;;;;;;;9.00;59.50;;;4.17;100.00;95709.25;4972146;28;19936;-43
2022/09/23 03:25:43;;;;;;;;;;;8.90;59.40;;;4.21;100.00;95704.34;4962714;28;19910;-46
2022/09/23 03:28:11;;;;;;;;;;;8.90;59.50;;;4.18;100.00;95700.31;4991593;28;19913;-45
2022/09/23 03:30:39;;;;;;;;;;;8.90;59.50;;;4.13;100.00;95693.06;4977594;28;19918;-46
2022/09/23 03:33:11;;;;;;;;;;;8.90;59.60;;;4.10;100.00;95701.41;4968373;28;19909;-45
2022/09/23 03:39:07;;;;;;;;;;;8.80;59.70;;;4.08;100.00;95700.03;4964746;28;19960;-46
2022/09/23 03:41:54;;;;;;;;;;;8.80;59.80;;;4.06;100.00;95710.00;4972562;28;20296;-53
2022/09/23 03:44:21;;;;;;;;;;;8.70;59.90;;;4.04;100.00;95712.03;4967602;28;19910;-51
2022/09/23 03:46:49;;;;;;;;;;;8.70;59.80;;;4.01;100.00;95718.56;4971371;28;19910;-45
2022/09/23 03:49:47;;;;;;;;;;;8.70;59.80;;;4.04;100.00;95709.38;4961851;28;19914;-44
2022/09/23 03:52:21;;;;;;;;;;;8.70;59.90;;;4.04;100.00;95709.38;4970648;28;19980;-45
2022/09/23 03:54:47;;;;;;;;;;;8.70;59.90;;;4.02;100.00;95712.25;4955253;28;19916;-46
2022/09/23 03:57:16;;;;;;;;;;;8.70;59.90;;;3.98;100.00;95705.00;4969890;28;19914;-45
2022/09/23 03:59:42;;;;;;;;;;;8.70;59.90;;;3.96;100.00;95702.59;4971392;28;19913;-45
2022/09/23 04:02:11;;;;;;;;;;;8.60;59.90;;;3.90;100.00;95704.28;4984573;28;19967;-46
2022/09/23 04:04:39;;;;;;;;;;;8.60;60.00;;;3.89;100.00;95707.13;4974488;28;19913;-44
2022/09/23 04:07:10;;;;;;;;;;;8.60;60.00;;;3.86;100.00;95703.09;4979464;28;19910;-44
2022/09/23 04:09:39;;;;;;;;;;;8.60;60.00;;;3.85;100.00;95703.31;4971309;28;20446;-53
2022/09/23 04:12:14;;;;;;;;;;;8.50;60.00;;;3.92;100.00;95706.72;4966241;28;20436;-48
2022/09/23 04:14:41;;;;;;;;;;;8.50;60.10;;;3.96;100.00;95697.31;4964168;28;19932;-49
2022/09/23 04:17:07;;;;;;;;;;;8.60;60.20;;;3.96;100.00;95701.78;4971288;28;19970;-45
2022/09/23 04:19:36;;;;;;;;;;;8.50;60.20;;;3.90;100.00;95693.72;4971421;28;19916;-48
2022/09/23 04:22:08;;;;;;;;;;;8.50;60.10;;;3.83;100.00;95700.09;4973360;28;19909;-47
2022/09/23 04:24:36;;;;;;;;;;;8.50;60.10;;;3.83;100.00;95697.47;4979621;28;19914;-46
2022/09/23 04:27:05;;;;;;;;;;;8.50;60.20;;;3.82;100.00;95699.28;4972276;28;19910;-48
2022/09/23 04:29:31;;;;;;;;;;;8.50;60.20;;;3.82;100.00;95704.53;4971883;28;19913;-47
2022/09/23 04:32:09;;;;;;;;;;;8.50;60.30;;;3.82;100.00;95690.56;4960554;28;19959;-45
2022/09/23 04:34:38;;;;;;;;;;;8.40;60.30;;;3.76;100.00;95694.91;4970823;28;19963;-45
2022/09/23 04:37:03;;;;;;;;;;;8.40;60.30;;;3.73;100.00;95692.72;4970179;28;20001;-46
2022/09/23 04:39:29;;;;;;;;;;;8.40;60.40;;;3.69;100.00;95696.78;4967267;28;19924;-47
2022/09/23 04:41:55;;;;;;;;;;;8.40;60.50;;;3.68;100.00;95692.56;4969121;28;19909;-45
2022/09/23 04:44:21;;;;;;;;;;;8.40;60.50;;;3.66;100.00;95691.94;4968079;28;20357;-48
2022/09/23 04:46:50;;;;;;;;;;;8.30;60.50;;;3.62;100.00;95696.06;4972339;28;19996;-45
2022/09/23 04:49:19;;;;;;;;;;;8.30;60.50;;;3.60;100.00;95703.34;4969666;28;19933;-44
2022/09/23 04:51:54;;;;;;;;;;;8.30;60.50;;;3.56;100.00;95707.47;4971778;28;19972;-44
2022/09/23 04:54:20;;;;;;;;;;;8.30;60.60;;;3.52;100.00;95709.72;4967312;28;20368;-45
2022/09/23 04:56:51;;;;;;;;;;;8.30;60.60;;;3.52;100.00;95703.66;4963625;28;19957;-45
2022/09/23 04:59:23;;;;;;;;;;;8.30;60.60;;;3.51;100.00;95709.94;4971892;28;19913;-45
2022/09/23 05:01:50;;;;;;;;;;;8.30;60.70;;;3.49;100.00;95707.53;4969807;28;19956;-44
2022/09/23 05:04:17;;;;;;;;;;;8.30;60.70;;;3.50;100.00;95708.31;4970767;28;19910;-44
2022/09/23 05:06:43;;;;;;;;;;;8.30;60.70;;;3.55;100.00;95705.84;4969174;28;19913;-46
2022/09/23 05:09:18;;;;;;;;;;;8.30;60.70;;;3.57;100.00;95701.16;4971805;28;19913;-47
2022/09/23 05:11:50;;;;;;;;;;;8.30;60.80;;;3.63;100.00;95706.38;4970406;28;20376;-45
2022/09/23 05:14:19;;;;;;;;;;;8.30;60.90;;;3.66;100.00;95703.28;4960056;28;19949;-45
2022/09/23 05:16:48;;;;;;;;;;;8.30;60.90;;;3.76;100.00;95702.81;4972078;28;19913;-49
2022/09/23 05:19:16;;;;;;;;;;;8.30;61.00;;;3.84;100.00;95714.88;4969594;28;19910;-48
2022/09/23 05:21:51;;;;;;;;;;;8.30;61.10;;;3.81;100.00;95707.41;4970010;28;20293;-47
2022/09/23 05:24:23;;;;;;;;;;;8.40;61.10;;;3.82;100.00;95709.81;4967733;28;19925;-48
2022/09/23 05:26:55;;;;;;;;;;;8.40;61.10;;;3.79;100.00;95702.38;4970675;28;19910;-49
2022/09/23 05:29:22;;;;;;;;;;;8.40;61.00;;;3.77;100.00;95700.97;4983998;28;19910;-46
2022/09/23 05:31:50;;;;;;;;;;;8.40;61.00;;;3.75;100.00;95713.56;4973469;28;19910;-46
2022/09/23 05:34:19;;;;;;;;;;;8.40;61.00;;;3.75;100.00;95714.38;4892689;28;20200;-48
2022/09/23 05:36:45;;;;;;;;;;;8.50;61.00;;;3.75;100.00;95711.72;4970108;28;20021;-49
2022/09/23 05:39:10;;;;;;;;;;;8.50;61.00;;;3.78;100.00;95713.13;4970276;28;19909;-45
2022/09/23 05:41:40;;;;;;;;;;;8.50;61.10;;;3.82;100.00;95716.94;4971027;28;19961;-46
2022/09/23 05:44:09;;;;;;;;;;;8.50;61.10;;;3.86;100.00;95726.03;4968123;28;19917;-46
2022/09/23 05:46:35;;;;;;;;;;;8.60;61.20;;;3.92;100.00;95717.25;4971312;28;19921;-45
2022/09/23 05:49:07;;;;;;;;;;;8.60;61.20;;;3.97;100.00;95721.84;4970262;28;19909;-48
2022/09/23 05:51:34;;;;;;;;;;;8.70;61.30;;;4.01;100.00;95726.47;4970047;28;19914;-47
2022/09/23 05:54:04;;;;;;;;;;;8.70;61.30;;;4.04;100.00;95728.69;4969567;28;19921;-44
2022/09/23 05:56:34;;;;;;;;;;;8.80;61.30;;;4.10;100.00;95727.75;4943878;28;19922;-46
2022/09/23 05:59:06;;;;;;;;;;;8.80;61.30;;;4.22;100.00;95733.13;4954070;28;19914;-50
2022/09/23 06:01:47;;;;;;;;;;;8.90;61.30;;;4.32;100.00;95738.66;4965879;28;20303;-45
2022/09/23 06:04:13;;;;;;;;;;;9.00;61.40;;;4.37;100.00;95738.03;4970552;28;19910;-46
2022/09/23 06:06:42;;;;;;;;;;;9.10;61.40;;;4.41;100.00;95736.53;4964596;28;19960;-45
2022/09/23 06:09:12;;;;;;;;;;;9.20;61.50;;;4.44;100.00;95738.75;4953364;28;20432;-46
2022/09/23 06:11:40;;;;;;;;;;;9.30;61.40;;;4.48;100.00;95739.09;4972015;28;19924;-52
2022/09/23 06:14:08;;;;;;;;;;;9.30;61.30;;;4.52;100.00;95742.91;4940526;28;19925;-47
2022/09/23 06:16:35;;;;;;;;;;;9.40;61.30;;;4.58;100.00;95736.75;4973579;28;19916;-46
2022/09/23 06:19:04;;;;;;;;;;;9.50;61.20;;;4.64;100.00;95735.88;4962922;28;19956;-44
2022/09/23 06:21:31;;;;;;;;;;;9.60;61.20;;;4.76;100.00;95744.63;4993566;28;20284;-46
2022/09/23 06:24:01;;;;;;;;;;;9.70;61.20;;;4.87;100.00;95737.78;4990693;28;20000;-47
2022/09/23 06:26:32;;;;;;;;;;;9.80;61.20;;;5.01;100.00;95743.66;4953296;28;19914;-45
2022/09/23 06:29:00;;;;;;;;;;;10.00;61.40;;;5.16;100.00;95746.69;4973911;28;19914;-45
2022/09/23 06:31:27;;;;;;;;;;;10.20;61.40;;;5.32;100.00;95746.03;4962543;28;20361;-45
2022/09/23 06:33:53;;;;;;;;;;;10.30;61.40;;;5.48;100.00;95743.75;4973185;28;19945;-45
2022/09/23 06:36:19;;;;;;;;;;;10.50;61.30;;;5.63;100.00;95748.59;4970597;28;19980;-45
2022/09/23 06:38:48;;;;;;;;;;;10.70;61.30;;;5.81;100.00;95753.78;4965047;28;19914;-46
2022/09/23 06:41:22;;;;;;;;;;;10.90;61.20;;;6.02;100.00;95750.59;4973714;28;19932;-46
2022/09/23 06:43:48;;;;;;;;;;;11.20;61.10;;;6.25;100.00;95748.94;4984461;28;19915;-46
2022/09/23 06:46:17;;;;;;;;;;;11.50;61.00;;;6.54;100.00;95752.44;4993728;28;19914;-52
2022/09/23 06:48:51;;;;;;;;;;;11.80;60.90;;;6.96;100.00;95757.50;4986766;28;20335;-50
2022/09/23 06:51:20;;;;;;;;;;;12.30;60.70;;;7.47;100.00;95753.06;4957240;28;20304;-48
2022/09/23 06:53:49;;;;;;;;;;;12.90;60.70;;;8.01;100.00;95753.34;4974375;28;19914;-50
2022/09/23 06:56:18;;;;;;;;;;;13.50;60.60;;;8.56;100.00;95755.19;4972724;28;19910;-52
2022/09/23 06:58:53;;;;;;;;;;;14.10;60.50;;;8.91;100.00;95755.84;4972977;28;19910;-48
2022/09/23 07:01:19;;;;;;;;;;;14.70;60.40;;;9.16;100.00;95756.09;4971172;28;20000;-49
2022/09/23 07:03:47;;;;;;;;;;;15.00;60.00;;;9.40;100.00;95759.25;4973034;28;20429;-46
2022/09/23 07:06:19;;;;;;;;;;;15.40;59.70;;;9.60;100.00;95757.81;4955356;28;20008;-44
2022/09/23 07:08:48;;;;;;;;;;;15.70;59.40;;;9.82;99.68;95758.50;4972621;28;19945;-46
2022/09/23 07:11:21;;;;;;;;;;;16.00;59.20;;;9.97;96.95;95752.50;4971814;28;19925;-46
2022/09/23 07:13:52;;;;;;;;;;;16.20;59.00;;;10.16;96.89;95760.88;4961695;28;19924;-47
2022/09/23 07:16:21;;;;;;;;;;;16.50;58.80;;;10.47;96.22;95767.19;4972525;28;20005;-47
2022/09/23 07:18:51;;;;;;;;;;;16.70;58.60;;;10.72;93.44;95763.03;4972192;28;19910;-49
2022/09/23 07:21:18;;;;;;;;;;;17.00;58.40;;;10.93;93.51;95755.91;4973158;28;19917;-48
2022/09/23 07:23:52;;;;;;;;;;;17.30;58.10;;;11.22;89.71;95753.56;4972177;28;20487;-47
2022/09/23 07:26:21;;;;;;;;;;;17.60;57.80;;;11.47;85.37;95758.97;4985510;28;20005;-49
2022/09/23 07:29:03;;;;;;;;;;;18.00;57.50;;;11.66;81.93;95759.25;4991689;28;19996;-49
2022/09/23 07:31:33;;;;;;;;;;;18.20;57.10;;;11.79;82.47;95758.69;4977882;28;19914;-48
2022/09/23 07:34:00;;;;;;;;;;;18.40;56.70;;;11.92;81.52;95760.06;4956474;28;20008;-47
2022/09/23 07:36:30;;;;;;;;;;;18.60;56.40;;;12.19;79.46;95757.09;4965642;28;19914;-47
2022/09/23 07:38:59;;;;;;;;;;;18.80;56.10;;;12.44;79.83;95763.41;4991297;28;19955;-47
2022/09/23 07:41:34;;;;;;;;;;;19.00;55.80;;;12.63;79.03;95764.47;4977629;28;20008;-47
2022/09/23 07:44:12;;;;;;;;;;;19.30;55.60;;;12.98;76.22;95753.88;4966654;28;19910;-45
2022/09/23 07:46:38;;;;;;;;;;;19.60;55.40;;;13.11;75.84;95758.63;4958898;28;19963;-49
2022/09/23 07:49:10;;;;;;;;;;;19.90;55.10;;;13.40;73.98;95756.84;4971565;28;20328;-47
2022/09/23 07:51:45;;;;;;;;;;;20.20;54.60;;;13.72;72.55;95752.09;4971892;28;19996;-47
2022/09/23 07:54:17;;;;;;;;;;;20.50;54.30;;;14.12;72.64;95754.41;4969733;28;19909;-49
2022/09/23 07:56:49;;;;;;;;;;;20.80;54.10;;;14.19;71.30;95756.75;4955812;28;20287;-46
2022/09/23 07:59:19;;;;;;;;;;;21.00;53.90;;;14.52;72.16;95754.31;4971591;28;19956;-49
2022/09/23 08:01:51;;;;;;;;;;;21.10;53.70;;;14.77;68.64;95762.06;4968072;28;19913;-47
2022/09/23 08:04:29;;;;;;;;;;;21.40;53.50;;;15.04;68.51;95752.59;4990391;28;19916;-47
2022/09/23 08:07:04;;;;;;;;;;;21.60;53.10;;;15.33;67.15;95754.38;4980896;28;19909;-47
2022/09/23 08:09:40;;;;;;;;;;;21.80;52.90;;;15.53;65.73;95764.03;4971372;28;19917;-48
2022/09/23 08:12:14;;;;;;;;;;;22.10;52.60;;;15.47;64.63;95757.94;4968700;28;19956;-48
2022/09/23 08:14:43;;;;;;;;;;;22.30;52.10;;;15.57;64.73;95760.44;4969773;28;20016;-44
2022/09/23 08:17:11;;;;;;;;;;;22.40;51.60;;;15.95;64.22;95758.56;4954871;28;20404;-43
2022/09/23 08:19:46;;;;;;;;;;;22.50;51.50;;;16.25;63.60;95761.78;4964618;28;19909;-44
2022/09/23 08:22:19;;;;;;;;;;;22.70;51.40;;;16.43;62.58;95760.94;4990173;28;19936;-44
2022/09/23 08:24:48;;;;;;;;;;;22.80;51.30;;;16.49;63.36;95769.72;4964089;28;19910;-44
2022/09/23 08:27:13;;;;;;;;;;;22.80;51.20;;;16.60;61.94;95759.53;4971313;28;19964;-46
2022/09/23 08:29:39;;;;;;;;;;;22.90;51.00;;;16.66;61.74;95764.53;4971619;28;19918;-43
2022/09/23 08:32:13;;;;;;;;;;;23.00;50.70;;;16.70;61.77;95758.56;4953432;28;19910;-43
2022/09/23 08:34:39;;;;;;;;;;;23.10;50.40;;;16.95;61.32;95759.97;4954268;28;19920;-46
2022/09/23 08:37:10;;;;;;;;;;;23.30;50.20;;;17.00;60.85;95766.03;4961435;28;19910;-43
2022/09/23 08:39:38;;;;;;;;;;;23.40;50.00;;;17.14;59.86;95759.84;4991628;28;19913;-45
2022/09/23 08:42:23;;;;;;;;;;;23.60;49.80;;;17.25;59.23;95762.03;4987225;28;20349;-43
2022/09/23 08:44:56;;;;;;;;;;;23.70;49.50;;;17.44;59.32;95761.88;4970202;28;19910;-49
2022/09/23 08:47:31;;;;;;;;;;;23.80;49.30;;;17.57;58.27;95755.63;4954926;28;19909;-44
2022/09/23 08:50:18;;;;;;;;;;;23.90;49.10;;;17.65;58.29;95764.13;4942499;28;19914;-44
2022/09/23 08:53:33;;;;;;;;;;;24.10;48.90;;;17.64;58.32;95757.13;4954771;28;20285;-47
2022/09/23 08:56:21;;;;;;;;;;;24.20;48.60;;;17.84;58.30;95763.97;4940880;28;19957;-44
2022/09/23 08:59:11;;;;;;;;;;;24.50;48.40;;;18.03;57.25;95762.66;4957114;28;19913;-48
2022/09/23 09:01:56;;;;;;;;;;;24.60;48.10;;;18.22;56.89;95756.28;4953042;28;19941;-44
2022/09/23 09:04:34;;;;;;;;;;;24.80;47.80;;;18.33;56.04;95757.59;4970363;28;20016;-46
2022/09/23 09:07:06;;;;;;;;;;;25.10;47.60;;;18.35;56.20;95758.09;4966364;28;19960;-44
2022/09/23 09:09:50;;;;;;;;;;;25.40;47.30;;;18.39;56.36;95752.88;4971662;28;19910;-46
2022/09/23 09:12:49;;;;;;;;;;;25.60;46.90;;;18.82;55.22;95755.78;4969512;28;19918;-44
2022/09/23 09:15:27;;;;;;;;;;;25.80;46.70;;;19.16;54.12;95749.69;4985794;28;19968;-47
2022/09/23 09:18:11;;;;;;;;;;;26.00;46.60;;;18.81;54.38;95748.81;4961294;28;19967;-44
2022/09/23 09:21:04;;;;;;;;;;;26.10;46.30;;;19.09;54.01;95741.25;4971067;28;19994;-46
2022/09/23 09:23:55;;;;;;;;;;;26.20;46.00;;;19.39;54.07;95736.03;4990545;28;20016;-45
2022/09/23 09:26:27;;;;;;;;;;;26.30;45.50;;;19.70;52.73;95741.31;4989681;28;19913;-45
2022/09/23 09:29:15;;;;;;;;;;;26.50;45.50;;;19.94;51.96;95735.44;4973763;28;19909;-48
2022/09/23 09:31:58;;;;;;;;;;;26.70;45.40;;;20.15;51.12;95730.16;4998124;28;19940;-44
2022/09/23 09:34:48;;;;;;;;;;;27.00;45.20;;;20.18;50.86;95734.09;4972973;28;19931;-45
2022/09/23 09:37:38;;;;;;;;;;;27.30;44.80;;;20.37;49.55;95721.03;4978972;28;19932;-44
2022/09/23 09:40:05;;;;;;;;;;;27.50;44.50;;;20.13;49.37;95724.25;4973968;28;19917;-44
2022/09/23 09:42:40;;;;;;;;;;;27.60;43.80;;;20.38;49.01;95732.63;4976213;28;19909;-46
2022/09/23 09:45:23;;;;;;;;;;;27.70;43.40;;;20.63;48.53;95718.22;4992815;28;19913;-46
2022/09/23 09:48:38;;;;;;;;;;;27.80;43.20;;;20.75;47.59;95722.97;4994775;28;19916;-48
2022/09/23 09:51:26;;;;;;;;;;;28.00;43.00;;;21.38;47.28;95721.16;4956122;28;19919;-44
2022/09/23 09:53:54;;;;;;;;;;;28.40;42.70;;;21.63;45.33;95710.44;4966121;28;19918;-47
2022/09/23 09:56:31;;;;;;;;;;;28.70;42.40;;;21.66;44.77;95707.09;4988361;28;19918;-48
2022/09/23 09:59:24;;;;;;;;;;;29.00;42.10;;;22.13;45.40;95713.00;4994483;28;19909;-47
2022/09/23 10:02:29;;;;;;;;;;;29.50;41.90;;;22.56;42.71;95702.78;4960560;28;19913;-50
2022/09/23 10:05:27;;;;;;;;;;;30.00;41.60;;;23.02;43.71;95696.16;4993901;28;19909;-49
2022/09/23 10:07:54;;;;;;;;;;;30.40;41.10;;;23.29;42.03;95702.00;4976524;28;19913;-46
2022/09/23 10:10:24;;;;;;;;;;;30.70;40.80;;;23.48;41.61;95704.13;4973289;28;19944;-47
2022/09/23 10:12:51;;;;;;;;;;;31.00;40.50;;;23.60;41.24;95695.91;4973073;28;19914;-51
2022/09/23 10:15:40;;;;;;;;;;;31.20;40.10;;;23.55;41.19;95696.16;4960296;28;19944;-49
2022/09/23 10:18:19;;;;;;;;;;;31.40;39.80;;;23.87;41.49;95691.63;4949131;28;20443;-52
2022/09/23 10:20:46;;;;;;;;;;;31.60;39.60;;;23.39;40.49;95692.59;4975816;28;19916;-48
2022/09/23 10:23:27;;;;;;;;;;;31.70;39.00;;;23.11;41.58;95687.09;4976760;28;20008;-50
2022/09/23 10:26:06;;;;;;;;;;;31.70;38.70;;;23.07;41.27;95692.44;4982776;28;19909;-51
2022/09/23 10:28:51;;;;;;;;;;;31.80;38.50;;;23.19;40.90;95684.25;4993770;28;19909;-52
2022/09/23 10:31:45;;;;;;;;;;;31.70;37.90;;;23.82;41.16;95680.22;4976516;28;19913;-44
2022/09/23 10:34:32;;;;;;;;;;;31.70;38.00;;;23.98;40.11;95690.00;4975889;28;19917;-47
2022/09/23 10:37:12;;;;;;;;;;;31.70;38.10;;;23.61;40.79;95674.97;4970269;28;20392;-45
2022/09/23 10:48:58;;;;;;;;;;;31.10;37.00;;;23.05;41.22;95668.31;4980772;28;19916;-45
2022/09/23 10:52:05;;;;;;;;;;;30.90;37.20;;;22.50;40.57;95672.41;4999002;28;20299;-45
2022/09/23 10:54:55;;;;;;;;;;;30.70;37.00;;;22.11;41.41;95663.72;4978190;28;19991;-50
2022/09/23 10:57:52;;;;;;;;;;;30.30;36.70;;;21.97;42.16;95660.53;4988887;28;20359;-44
2022/09/23 11:01:15;;;;;;;;;;;29.90;36.70;;;22.30;40.71;95657.00;4993891;28;20000;-51
2022/09/23 11:04:26;;;;;;;;;;;29.70;36.90;;;21.57;41.70;95658.38;4943844;28;19967;-47
2022/09/23 11:07:25;;;;;;;;;;;29.40;36.70;;;21.47;40.49;95659.56;4961618;28;19914;-44
2022/09/23 11:10:22;;;;;;;;;;;28.90;36.30;;;21.24;40.88;95647.44;4969210;28;20289;-46
2022/09/23 11:12:56;;;;;;;;;;;28.50;36.40;;;20.60;42.57;95655.84;4989724;28;19916;-45
2022/09/23 11:15:46;;;;;;;;;;;28.20;36.20;;;20.74;42.55;95650.97;4992416;28;20048;-47
2022/09/23 11:18:41;;;;;;;;;;;27.90;36.00;;;20.96;42.93;95645.25;4972444;28;19913;-44
2022/09/23 11:21:45;;;;;;;;;;;27.80;36.50;;;20.99;42.91;95644.59;4960234;28;19909;-44
2022/09/23 11:24:48;;;;;;;;;;;27.70;36.50;;;20.84;43.48;95649.81;4991988;28;19909;-47
2022/09/23 11:27:38;;;;;;;;;;;27.60;36.50;;;21.03;43.25;95645.53;4995799;28;20475;-46
2022/09/23 11:30:19;;;;;;;;;;;27.80;36.50;;;21.47;42.75;95639.81;4991475;28;19913;-50
2022/09/23 11:33:17;;;;;;;;;;;28.20;36.40;;;21.75;41.42;95631.91;4964200;28;19909;-45
2022/09/23 11:36:01;;;;;;;;;;;28.80;36.30;;;21.86;41.79;95632.25;4974714;28;19917;-44
2022/09/23 11:38:39;;;;;;;;;;;29.30;35.60;;;22.41;41.55;95636.44;4986883;28;20004;-49
2022/09/23 11:41:22;;;;;;;;;;;29.70;35.60;;;22.82;41.34;95627.25;4971099;28;19917;-45
2022/09/23 11:44:07;;;;;;;;;;;30.10;35.40;;;23.30;39.96;95622.06;4990447;28;19953;-47
2022/09/23 11:47:09;;;;;;;;;;;30.50;35.50;;;23.46;39.72;95624.81;4957755;28;20295;-46
2022/09/23 11:50:11;;;;;;;;;;;30.90;35.20;;;23.70;38.81;95621.25;4952927;28;20390;-45
2022/09/23 11:52:50;;;;;;;;;;;31.30;35.00;;;23.77;38.91;95619.50;4975924;28;19909;-48
2022/09/23 11:55:25;;;;;;;;;;;31.50;34.70;;;23.59;39.49;95612.75;4972822;28;19917;-44
2022/09/23 11:58:02;;;;;;;;;;;31.80;34.40;;;23.75;39.31;95616.34;4975072;28;19909;-45
2022/09/23 12:00:37;;;;;;;;;;;32.10;34.20;;;23.72;38.62;95611.63;4991533;28;19960;-45
2022/09/23 12:03:40;;;;;;;;;;;32.20;33.90;;;23.99;39.09;95609.19;4975256;28;19992;-47
2022/09/23 12:06:30;;;;;;;;;;;32.40;33.40;;;24.02;39.19;95597.59;4987432;28;19948;-44
2022/09/23 12:09:11;;;;;;;;;;;32.60;33.20;;;23.97;39.02;95593.22;4967504;28;19960;-47
2022/09/23 12:12:17;;;;;;;;;;;32.70;32.90;;;24.24;38.78;95588.81;4975080;28;19937;-46
2022/09/23 12:15:20;;;;;;;;;;;32.90;32.80;;;24.41;38.35;95584.13;4967210;28;19957;-45
2022/09/23 12:18:20;;;;;;;;;;;33.10;32.40;;;25.12;37.98;95580.31;4987134;28;19922;-49
2022/09/23 12:21:33;;;;;;;;;;;33.30;32.50;;;25.18;36.94;95574.59;4969425;28;19917;-45
2022/09/23 12:24:14;;;;;;;;;;;33.70;32.60;;;25.42;36.76;95579.75;4945830;28;19910;-46
2022/09/23 12:26:42;;;;;;;;;;;34.00;32.20;;;25.23;37.02;95575.09;4978311;28;19975;-45
2022/09/23 12:29:18;;;;;;;;;;;34.20;31.80;;;25.53;36.97;95563.59;4938963;28;19924;-47
2022/09/23 12:31:45;;;;;;;;;;;34.30;31.50;;;25.26;37.05;95568.94;4971321;28;19940;-46